sensor_id;sensor_type;location;lat;lon;timestamp;P1;durP1;ratioP1;P2;durP2;ratioP2
15502;SDS011;7853;52.186;5.948;2022-09-09T00:02:38;4.68;;;2.94;;
15502;SDS011;7853;52.186;5.948;2022-09-09T00:02:38;5.15;;;2.79;;
15502;SDS011;7853;52.186;5.948;2022-09-09T00:02:38;6.22;;;3.01;;
15502;SDS011;7853;52.186;5.948;2022-09-09T00:03:37;5.74;;;3.06;;
15502;SDS011;7853;52.186;5.948;2022-09-09T00:04:35;4.40;;;2.67;;
15502;SDS011;7853;52.186;5.948;2022-09-09T00:05:36;5.62;;;2.57;;
15502;SDS011;7853;52.186;5.948;2022-09-09T00:06:37;5.94;;;2.48;;
15502;SDS011;7853;52.186;5.948;2022-09-09T00:07:37;4.19;;;2.25;;
15502;SDS011;7853;52.186;5.948;2022-09-09T00:08:38;3.07;;;2.04;;
15502;SDS011;7853;52.186;5.948;2022-09-09T00:09:38;3.24;;;2.24;;
15502;SDS011;7853;52.186;5.948;2022-09-09T00:10:36;4.25;;;2.15;;
15502;SDS011;7853;52.186;5.948;2022-09-09T00:11:36;3.11;;;2.08;;
15502;SDS011;7853;52.186;5.948;2022-09-09T00:12:36;4.39;;;2.45;;
15502;SDS011;7853;52.186;5.948;2022-09-09T00:13:37;3.33;;;2.33;;
15502;SDS011;7853;52.186;5.948;2022-09-09T00:14:37;4.03;;;2.31;;
15502;SDS011;7853;52.186;5.948;2022-09-09T00:15:37;4.17;;;2.45;;
15502;SDS011;7853;52.186;5.948;2022-09-09T00:16:36;3.05;;;2.36;;
15502;SDS011;7853;52.186;5.948;2022-09-09T00:17:36;3.99;;;2.65;;
15502;SDS011;7853;52.186;5.948;2022-09-09T00:18:40;4.38;;;2.73;;
15502;SDS011;7853;52.186;5.948;2022-09-09T00:19:37;4.16;;;2.94;;
15502;SDS011;7853;52.186;5.948;2022-09-09T00:20:38;4.87;;;2.70;;
15502;SDS011;7853;52.186;5.948;2022-09-09T00:21:36;4.47;;;2.75;;
15502;SDS011;7853;52.186;5.948;2022-09-09T00:22:36;5.50;;;2.93;;
15502;SDS011;7853;52.186;5.948;2022-09-09T00:23:37;5.96;;;3.13;;
15502;SDS011;7853;52.186;5.948;2022-09-09T00:24:38;5.39;;;3.51;;
15502;SDS011;7853;52.186;5.948;2022-09-09T00:25:37;6.09;;;3.70;;
15502;SDS011;7853;52.186;5.948;2022-09-09T00:26:38;5.08;;;3.43;;
15502;SDS011;7853;52.186;5.948;2022-09-09T00:27:37;5.96;;;3.58;;
15502;SDS011;7853;52.186;5.948;2022-09-09T00:28:38;4.46;;;3.55;;
15502;SDS011;7853;52.186;5.948;2022-09-09T00:29:38;6.41;;;3.59;;
15502;SDS011;7853;52.186;5.948;2022-09-09T00:30:36;5.29;;;3.48;;
15502;SDS011;7853;52.186;5.948;2022-09-09T00:31:36;5.64;;;3.72;;
15502;SDS011;7853;52.186;5.948;2022-09-09T00:32:36;6.39;;;3.54;;
15502;SDS011;7853;52.186;5.948;2022-09-09T00:33:36;5.26;;;3.56;;
15502;SDS011;7853;52.186;5.948;2022-09-09T00:34:36;6.76;;;3.78;;
15502;SDS011;7853;52.186;5.948;2022-09-09T00:35:37;5.79;;;3.84;;
15502;SDS011;7853;52.186;5.948;2022-09-09T00:36:36;6.06;;;3.94;;
15502;SDS011;7853;52.186;5.948;2022-09-09T00:37:36;5.26;;;4.04;;
15502;SDS011;7853;52.186;5.948;2022-09-09T00:38:37;7.23;;;4.01;;
15502;SDS011;7853;52.186;5.948;2022-09-09T00:39:37;5.49;;;3.85;;
15502;SDS011;7853;52.186;5.948;2022-09-09T00:40:37;5.80;;;4.04;;
15502;SDS011;7853;52.186;5.948;2022-09-09T00:41:40;5.71;;;3.74;;
15502;SDS011;7853;52.186;5.948;2022-09-09T00:42:39;5.47;;;4.04;;
15502;SDS011;7853;52.186;5.948;2022-09-09T00:43:37;6.07;;;4.11;;
15502;SDS011;7853;52.186;5.948;2022-09-09T00:44:37;6.45;;;3.99;;
15502;SDS011;7853;52.186;5.948;2022-09-09T00:45:43;5.52;;;3.87;;
15502;SDS011;7853;52.186;5.948;2022-09-09T00:46:41;4.79;;;3.78;;
15502;SDS011;7853;52.186;5.948;2022-09-09T00:47:39;7.09;;;4.40;;
15502;SDS011;7853;52.186;5.948;2022-09-09T00:48:39;6.13;;;3.91;;
15502;SDS011;7853;52.186;5.948;2022-09-09T00:49:40;6.85;;;4.47;;
15502;SDS011;7853;52.186;5.948;2022-09-09T00:50:41;6.30;;;3.81;;
15502;SDS011;7853;52.186;5.948;2022-09-09T00:51:40;6.81;;;4.14;;
15502;SDS011;7853;52.186;5.948;2022-09-09T00:52:40;6.75;;;4.07;;
15502;SDS011;7853;52.186;5.948;2022-09-09T00:53:38;7.33;;;3.65;;
15502;SDS011;7853;52.186;5.948;2022-09-09T00:54:40;5.85;;;4.10;;
15502;SDS011;7853;52.186;5.948;2022-09-09T00:55:39;7.32;;;4.16;;
15502;SDS011;7853;52.186;5.948;2022-09-09T00:56:39;5.81;;;3.98;;
15502;SDS011;7853;52.186;5.948;2022-09-09T00:57:38;5.48;;;3.63;;
15502;SDS011;7853;52.186;5.948;2022-09-09T00:58:38;6.64;;;3.93;;
15502;SDS011;7853;52.186;5.948;2022-09-09T00:59:40;5.65;;;4.09;;
15502;SDS011;7853;52.186;5.948;2022-09-09T01:00:39;6.47;;;4.24;;
15502;SDS011;7853;52.186;5.948;2022-09-09T01:01:38;6.54;;;3.87;;
15502;SDS011;7853;52.186;5.948;2022-09-09T01:02:39;5.57;;;3.91;;
15502;SDS011;7853;52.186;5.948;2022-09-09T01:03:39;5.25;;;4.16;;
15502;SDS011;7853;52.186;5.948;2022-09-09T01:04:38;4.97;;;3.75;;
15502;SDS011;7853;52.186;5.948;2022-09-09T01:05:39;5.03;;;3.74;;
15502;SDS011;7853;52.186;5.948;2022-09-09T01:06:38;7.65;;;3.81;;
15502;SDS011;7853;52.186;5.948;2022-09-09T01:07:38;5.60;;;4.30;;
15502;SDS011;7853;52.186;5.948;2022-09-09T01:08:42;4.97;;;3.64;;
15502;SDS011;7853;52.186;5.948;2022-09-09T01:09:42;6.13;;;3.84;;
15502;SDS011;7853;52.186;5.948;2022-09-09T01:10:40;5.12;;;4.06;;
15502;SDS011;7853;52.186;5.948;2022-09-09T01:11:42;7.12;;;3.70;;
15502;SDS011;7853;52.186;5.948;2022-09-09T01:12:39;6.89;;;3.99;;
15502;SDS011;7853;52.186;5.948;2022-09-09T01:13:38;5.52;;;3.63;;
15502;SDS011;7853;52.186;5.948;2022-09-09T01:14:40;4.78;;;3.86;;
15502;SDS011;7853;52.186;5.948;2022-09-09T01:15:38;5.17;;;3.69;;
15502;SDS011;7853;52.186;5.948;2022-09-09T01:16:38;5.40;;;3.50;;
15502;SDS011;7853;52.186;5.948;2022-09-09T01:17:45;6.51;;;3.86;;
15502;SDS011;7853;52.186;5.948;2022-09-09T01:18:39;5.85;;;4.04;;
15502;SDS011;7853;52.186;5.948;2022-09-09T01:19:41;5.64;;;3.68;;
15502;SDS011;7853;52.186;5.948;2022-09-09T01:20:39;6.07;;;3.99;;
15502;SDS011;7853;52.186;5.948;2022-09-09T01:21:39;5.06;;;3.49;;
15502;SDS011;7853;52.186;5.948;2022-09-09T01:22:40;7.77;;;3.98;;
15502;SDS011;7853;52.186;5.948;2022-09-09T01:23:44;8.71;;;4.25;;
15502;SDS011;7853;52.186;5.948;2022-09-09T01:24:40;6.92;;;4.01;;
15502;SDS011;7853;52.186;5.948;2022-09-09T01:25:56;5.90;;;4.20;;
15502;SDS011;7853;52.186;5.948;2022-09-09T01:26:39;6.05;;;4.24;;
15502;SDS011;7853;52.186;5.948;2022-09-09T01:27:39;6.92;;;4.73;;
15502;SDS011;7853;52.186;5.948;2022-09-09T01:28:39;6.18;;;4.12;;
15502;SDS011;7853;52.186;5.948;2022-09-09T01:29:39;7.25;;;4.33;;
15502;SDS011;7853;52.186;5.948;2022-09-09T01:30:40;6.35;;;4.00;;
15502;SDS011;7853;52.186;5.948;2022-09-09T01:31:40;6.28;;;4.52;;
15502;SDS011;7853;52.186;5.948;2022-09-09T01:32:41;5.72;;;4.05;;
15502;SDS011;7853;52.186;5.948;2022-09-09T01:33:39;5.97;;;4.29;;
15502;SDS011;7853;52.186;5.948;2022-09-09T01:34:39;6.93;;;4.52;;
15502;SDS011;7853;52.186;5.948;2022-09-09T01:35:41;7.04;;;4.22;;
15502;SDS011;7853;52.186;5.948;2022-09-09T01:36:41;7.66;;;4.31;;
15502;SDS011;7853;52.186;5.948;2022-09-09T01:37:40;5.98;;;4.12;;
15502;SDS011;7853;52.186;5.948;2022-09-09T01:38:40;6.46;;;4.29;;
15502;SDS011;7853;52.186;5.948;2022-09-09T01:39:40;7.90;;;4.28;;
15502;SDS011;7853;52.186;5.948;2022-09-09T01:40:40;6.45;;;4.45;;
15502;SDS011;7853;52.186;5.948;2022-09-09T01:41:40;6.33;;;4.15;;
15502;SDS011;7853;52.186;5.948;2022-09-09T01:42:40;6.84;;;4.20;;
15502;SDS011;7853;52.186;5.948;2022-09-09T01:43:40;7.87;;;4.03;;
15502;SDS011;7853;52.186;5.948;2022-09-09T01:44:40;6.82;;;4.28;;
15502;SDS011;7853;52.186;5.948;2022-09-09T01:45:40;5.52;;;4.34;;
15502;SDS011;7853;52.186;5.948;2022-09-09T01:46:40;5.42;;;4.05;;
15502;SDS011;7853;52.186;5.948;2022-09-09T01:47:40;6.80;;;4.07;;
15502;SDS011;7853;52.186;5.948;2022-09-09T01:48:40;7.62;;;4.39;;
15502;SDS011;7853;52.186;5.948;2022-09-09T01:49:40;7.12;;;4.61;;
15502;SDS011;7853;52.186;5.948;2022-09-09T01:50:40;10.03;;;4.17;;
15502;SDS011;7853;52.186;5.948;2022-09-09T01:51:40;5.82;;;3.91;;
15502;SDS011;7853;52.186;5.948;2022-09-09T01:52:40;6.90;;;4.35;;
15502;SDS011;7853;52.186;5.948;2022-09-09T01:53:40;5.68;;;4.37;;
15502;SDS011;7853;52.186;5.948;2022-09-09T01:54:40;7.47;;;4.60;;
15502;SDS011;7853;52.186;5.948;2022-09-09T01:55:41;6.68;;;4.07;;
15502;SDS011;7853;52.186;5.948;2022-09-09T01:58:44;7.46;;;4.23;;
15502;SDS011;7853;52.186;5.948;2022-09-09T01:59:45;7.09;;;4.12;;
15502;SDS011;7853;52.186;5.948;2022-09-09T02:00:43;6.86;;;3.82;;
15502;SDS011;7853;52.186;5.948;2022-09-09T02:01:44;6.20;;;3.55;;
15502;SDS011;7853;52.186;5.948;2022-09-09T02:02:44;5.63;;;3.65;;
15502;SDS011;7853;52.186;5.948;2022-09-09T02:03:41;5.74;;;3.45;;
15502;SDS011;7853;52.186;5.948;2022-09-09T02:04:42;6.52;;;3.54;;
15502;SDS011;7853;52.186;5.948;2022-09-09T02:05:43;5.78;;;3.58;;
15502;SDS011;7853;52.186;5.948;2022-09-09T02:06:41;5.38;;;3.57;;
15502;SDS011;7853;52.186;5.948;2022-09-09T02:07:42;6.57;;;3.60;;
15502;SDS011;7853;52.186;5.948;2022-09-09T02:08:42;4.40;;;3.34;;
15502;SDS011;7853;52.186;5.948;2022-09-09T02:09:41;7.86;;;4.06;;
15502;SDS011;7853;52.186;5.948;2022-09-09T02:10:42;6.04;;;3.72;;
15502;SDS011;7853;52.186;5.948;2022-09-09T02:11:41;6.08;;;3.55;;
15502;SDS011;7853;52.186;5.948;2022-09-09T02:12:42;5.06;;;3.15;;
15502;SDS011;7853;52.186;5.948;2022-09-09T02:14:42;5.70;;;3.59;;
15502;SDS011;7853;52.186;5.948;2022-09-09T02:15:42;6.59;;;3.71;;
15502;SDS011;7853;52.186;5.948;2022-09-09T02:16:42;4.94;;;3.15;;
15502;SDS011;7853;52.186;5.948;2022-09-09T02:17:42;5.19;;;3.42;;
15502;SDS011;7853;52.186;5.948;2022-09-09T02:18:42;5.98;;;3.51;;
15502;SDS011;7853;52.186;5.948;2022-09-09T02:19:43;5.50;;;3.61;;
15502;SDS011;7853;52.186;5.948;2022-09-09T02:20:42;5.12;;;3.33;;
15502;SDS011;7853;52.186;5.948;2022-09-09T02:21:42;5.84;;;3.64;;
15502;SDS011;7853;52.186;5.948;2022-09-09T02:22:42;5.52;;;3.41;;
15502;SDS011;7853;52.186;5.948;2022-09-09T02:23:42;6.16;;;3.54;;
15502;SDS011;7853;52.186;5.948;2022-09-09T02:24:42;7.33;;;3.75;;
15502;SDS011;7853;52.186;5.948;2022-09-09T02:25:42;5.26;;;3.54;;
15502;SDS011;7853;52.186;5.948;2022-09-09T02:26:42;5.59;;;3.77;;
15502;SDS011;7853;52.186;5.948;2022-09-09T02:27:43;6.19;;;3.53;;
15502;SDS011;7853;52.186;5.948;2022-09-09T02:28:42;6.52;;;3.77;;
15502;SDS011;7853;52.186;5.948;2022-09-09T02:29:42;5.62;;;3.57;;
15502;SDS011;7853;52.186;5.948;2022-09-09T02:30:42;4.64;;;3.30;;
15502;SDS011;7853;52.186;5.948;2022-09-09T02:31:43;6.80;;;3.69;;
15502;SDS011;7853;52.186;5.948;2022-09-09T02:32:43;5.72;;;3.65;;
15502;SDS011;7853;52.186;5.948;2022-09-09T02:33:43;6.02;;;3.08;;
15502;SDS011;7853;52.186;5.948;2022-09-09T02:34:43;5.99;;;3.48;;
15502;SDS011;7853;52.186;5.948;2022-09-09T02:35:43;6.64;;;3.77;;
15502;SDS011;7853;52.186;5.948;2022-09-09T02:36:43;5.45;;;3.62;;
15502;SDS011;7853;52.186;5.948;2022-09-09T02:37:44;6.19;;;3.68;;
15502;SDS011;7853;52.186;5.948;2022-09-09T02:38:45;5.57;;;3.50;;
15502;SDS011;7853;52.186;5.948;2022-09-09T02:39:43;5.71;;;3.50;;
15502;SDS011;7853;52.186;5.948;2022-09-09T02:40:43;6.22;;;3.86;;
15502;SDS011;7853;52.186;5.948;2022-09-09T02:41:43;6.18;;;3.62;;
15502;SDS011;7853;52.186;5.948;2022-09-09T02:42:44;6.57;;;3.51;;
15502;SDS011;7853;52.186;5.948;2022-09-09T02:43:43;4.91;;;3.54;;
15502;SDS011;7853;52.186;5.948;2022-09-09T02:44:43;6.73;;;3.53;;
15502;SDS011;7853;52.186;5.948;2022-09-09T02:45:47;5.94;;;3.18;;
15502;SDS011;7853;52.186;5.948;2022-09-09T02:46:48;5.62;;;3.63;;
15502;SDS011;7853;52.186;5.948;2022-09-09T02:47:44;5.08;;;3.37;;
15502;SDS011;7853;52.186;5.948;2022-09-09T02:48:44;4.53;;;3.35;;
15502;SDS011;7853;52.186;5.948;2022-09-09T02:49:46;6.39;;;3.75;;
15502;SDS011;7853;52.186;5.948;2022-09-09T02:50:45;6.74;;;3.51;;
15502;SDS011;7853;52.186;5.948;2022-09-09T02:51:45;7.07;;;4.03;;
15502;SDS011;7853;52.186;5.948;2022-09-09T02:52:47;4.40;;;3.30;;
15502;SDS011;7853;52.186;5.948;2022-09-09T02:53:53;5.54;;;3.54;;
15502;SDS011;7853;52.186;5.948;2022-09-09T02:54:44;4.45;;;3.61;;
15502;SDS011;7853;52.186;5.948;2022-09-09T02:55:46;6.62;;;3.44;;
15502;SDS011;7853;52.186;5.948;2022-09-09T02:56:46;5.58;;;3.51;;
15502;SDS011;7853;52.186;5.948;2022-09-09T02:57:44;6.90;;;3.58;;
15502;SDS011;7853;52.186;5.948;2022-09-09T02:58:44;6.42;;;3.54;;
15502;SDS011;7853;52.186;5.948;2022-09-09T02:59:44;5.21;;;3.50;;
15502;SDS011;7853;52.186;5.948;2022-09-09T03:00:45;5.42;;;3.47;;
15502;SDS011;7853;52.186;5.948;2022-09-09T03:01:44;6.59;;;3.64;;
15502;SDS011;7853;52.186;5.948;2022-09-09T03:02:44;5.42;;;3.43;;
15502;SDS011;7853;52.186;5.948;2022-09-09T03:03:44;6.11;;;3.39;;
15502;SDS011;7853;52.186;5.948;2022-09-09T03:04:44;6.67;;;3.82;;
15502;SDS011;7853;52.186;5.948;2022-09-09T03:05:44;5.32;;;3.54;;
15502;SDS011;7853;52.186;5.948;2022-09-09T03:06:44;6.23;;;4.11;;
15502;SDS011;7853;52.186;5.948;2022-09-09T03:07:44;5.69;;;3.59;;
15502;SDS011;7853;52.186;5.948;2022-09-09T03:08:44;6.39;;;3.52;;
15502;SDS011;7853;52.186;5.948;2022-09-09T03:09:45;5.01;;;3.41;;
15502;SDS011;7853;52.186;5.948;2022-09-09T03:10:45;4.51;;;3.27;;
15502;SDS011;7853;52.186;5.948;2022-09-09T03:11:45;5.61;;;3.65;;
15502;SDS011;7853;52.186;5.948;2022-09-09T03:12:45;5.23;;;3.61;;
15502;SDS011;7853;52.186;5.948;2022-09-09T03:13:45;7.46;;;3.38;;
15502;SDS011;7853;52.186;5.948;2022-09-09T03:14:45;5.31;;;3.40;;
15502;SDS011;7853;52.186;5.948;2022-09-09T03:15:45;5.30;;;3.36;;
15502;SDS011;7853;52.186;5.948;2022-09-09T03:16:45;6.03;;;3.42;;
15502;SDS011;7853;52.186;5.948;2022-09-09T03:17:45;5.20;;;3.53;;
15502;SDS011;7853;52.186;5.948;2022-09-09T03:18:45;4.12;;;3.53;;
15502;SDS011;7853;52.186;5.948;2022-09-09T03:19:45;5.35;;;3.41;;
15502;SDS011;7853;52.186;5.948;2022-09-09T03:20:45;5.62;;;3.36;;
15502;SDS011;7853;52.186;5.948;2022-09-09T03:21:45;6.60;;;3.53;;
15502;SDS011;7853;52.186;5.948;2022-09-09T03:22:45;4.98;;;3.41;;
15502;SDS011;7853;52.186;5.948;2022-09-09T03:23:45;5.20;;;3.63;;
15502;SDS011;7853;52.186;5.948;2022-09-09T03:24:45;4.86;;;3.28;;
15502;SDS011;7853;52.186;5.948;2022-09-09T03:25:46;5.33;;;3.33;;
15502;SDS011;7853;52.186;5.948;2022-09-09T03:26:45;5.77;;;3.40;;
15502;SDS011;7853;52.186;5.948;2022-09-09T03:27:45;6.08;;;3.61;;
15502;SDS011;7853;52.186;5.948;2022-09-09T03:28:45;5.39;;;3.56;;
15502;SDS011;7853;52.186;5.948;2022-09-09T03:29:45;5.40;;;3.83;;
15502;SDS011;7853;52.186;5.948;2022-09-09T03:30:45;4.65;;;3.57;;
15502;SDS011;7853;52.186;5.948;2022-09-09T03:31:45;6.71;;;3.37;;
15502;SDS011;7853;52.186;5.948;2022-09-09T03:32:46;6.18;;;3.49;;
15502;SDS011;7853;52.186;5.948;2022-09-09T03:33:46;5.46;;;3.52;;
15502;SDS011;7853;52.186;5.948;2022-09-09T03:34:46;7.18;;;3.73;;
15502;SDS011;7853;52.186;5.948;2022-09-09T03:35:46;7.08;;;3.50;;
15502;SDS011;7853;52.186;5.948;2022-09-09T03:36:46;5.88;;;3.61;;
15502;SDS011;7853;52.186;5.948;2022-09-09T03:37:46;6.57;;;3.53;;
15502;SDS011;7853;52.186;5.948;2022-09-09T03:38:46;5.03;;;3.43;;
15502;SDS011;7853;52.186;5.948;2022-09-09T03:39:46;5.08;;;3.70;;
15502;SDS011;7853;52.186;5.948;2022-09-09T03:40:50;6.42;;;3.62;;
15502;SDS011;7853;52.186;5.948;2022-09-09T03:41:46;4.49;;;3.45;;
15502;SDS011;7853;52.186;5.948;2022-09-09T03:42:46;5.19;;;3.61;;
15502;SDS011;7853;52.186;5.948;2022-09-09T03:43:46;5.57;;;3.72;;
15502;SDS011;7853;52.186;5.948;2022-09-09T03:44:46;5.33;;;3.42;;
15502;SDS011;7853;52.186;5.948;2022-09-09T03:45:46;6.68;;;3.83;;
15502;SDS011;7853;52.186;5.948;2022-09-09T03:46:46;7.09;;;3.61;;
15502;SDS011;7853;52.186;5.948;2022-09-09T03:47:46;6.97;;;3.28;;
15502;SDS011;7853;52.186;5.948;2022-09-09T03:48:46;5.62;;;3.61;;
15502;SDS011;7853;52.186;5.948;2022-09-09T03:49:46;4.83;;;3.60;;
15502;SDS011;7853;52.186;5.948;2022-09-09T03:50:46;5.13;;;3.52;;
15502;SDS011;7853;52.186;5.948;2022-09-09T03:51:46;5.19;;;3.44;;
15502;SDS011;7853;52.186;5.948;2022-09-09T03:52:46;4.62;;;3.27;;
15502;SDS011;7853;52.186;5.948;2022-09-09T03:53:46;7.13;;;3.63;;
15502;SDS011;7853;52.186;5.948;2022-09-09T03:54:47;4.82;;;3.54;;
15502;SDS011;7853;52.186;5.948;2022-09-09T03:55:47;4.49;;;3.70;;
15502;SDS011;7853;52.186;5.948;2022-09-09T03:56:47;5.80;;;3.88;;
15502;SDS011;7853;52.186;5.948;2022-09-09T03:57:47;5.43;;;3.42;;
15502;SDS011;7853;52.186;5.948;2022-09-09T03:58:47;6.50;;;4.00;;
15502;SDS011;7853;52.186;5.948;2022-09-09T03:59:47;5.74;;;3.67;;
15502;SDS011;7853;52.186;5.948;2022-09-09T04:00:52;8.56;;;3.91;;
15502;SDS011;7853;52.186;5.948;2022-09-09T04:01:47;4.92;;;3.55;;
15502;SDS011;7853;52.186;5.948;2022-09-09T04:02:47;6.00;;;4.13;;
15502;SDS011;7853;52.186;5.948;2022-09-09T04:03:47;5.77;;;3.91;;
15502;SDS011;7853;52.186;5.948;2022-09-09T04:04:47;5.73;;;3.74;;
15502;SDS011;7853;52.186;5.948;2022-09-09T04:05:48;6.50;;;3.54;;
15502;SDS011;7853;52.186;5.948;2022-09-09T04:06:47;6.64;;;4.51;;
15502;SDS011;7853;52.186;5.948;2022-09-09T04:07:47;5.53;;;3.53;;
15502;SDS011;7853;52.186;5.948;2022-09-09T04:08:47;5.19;;;3.70;;
15502;SDS011;7853;52.186;5.948;2022-09-09T04:09:47;6.59;;;3.96;;
15502;SDS011;7853;52.186;5.948;2022-09-09T04:10:48;10.16;;;4.23;;
15502;SDS011;7853;52.186;5.948;2022-09-09T04:11:47;9.86;;;4.27;;
15502;SDS011;7853;52.186;5.948;2022-09-09T04:12:47;6.37;;;4.12;;
15502;SDS011;7853;52.186;5.948;2022-09-09T04:13:48;7.20;;;4.59;;
15502;SDS011;7853;52.186;5.948;2022-09-09T04:14:47;5.72;;;4.08;;
15502;SDS011;7853;52.186;5.948;2022-09-09T04:15:50;5.24;;;3.67;;
15502;SDS011;7853;52.186;5.948;2022-09-09T04:16:48;5.62;;;4.08;;
15502;SDS011;7853;52.186;5.948;2022-09-09T04:17:48;7.76;;;4.15;;
15502;SDS011;7853;52.186;5.948;2022-09-09T04:18:48;7.01;;;4.32;;
15502;SDS011;7853;52.186;5.948;2022-09-09T04:19:48;7.92;;;4.11;;
15502;SDS011;7853;52.186;5.948;2022-09-09T04:20:48;6.45;;;4.29;;
15502;SDS011;7853;52.186;5.948;2022-09-09T04:21:48;6.01;;;4.13;;
15502;SDS011;7853;52.186;5.948;2022-09-09T04:22:48;6.27;;;4.16;;
15502;SDS011;7853;52.186;5.948;2022-09-09T04:23:48;8.11;;;4.40;;
15502;SDS011;7853;52.186;5.948;2022-09-09T04:24:48;6.02;;;4.34;;
15502;SDS011;7853;52.186;5.948;2022-09-09T04:25:49;5.85;;;4.38;;
15502;SDS011;7853;52.186;5.948;2022-09-09T04:26:48;7.53;;;4.49;;
15502;SDS011;7853;52.186;5.948;2022-09-09T04:27:52;6.50;;;4.49;;
15502;SDS011;7853;52.186;5.948;2022-09-09T04:28:48;7.99;;;4.58;;
15502;SDS011;7853;52.186;5.948;2022-09-09T04:29:48;8.66;;;5.03;;
15502;SDS011;7853;52.186;5.948;2022-09-09T04:30:48;7.39;;;4.79;;
15502;SDS011;7853;52.186;5.948;2022-09-09T04:31:48;6.96;;;4.78;;
15502;SDS011;7853;52.186;5.948;2022-09-09T04:32:48;6.52;;;4.80;;
15502;SDS011;7853;52.186;5.948;2022-09-09T04:33:48;7.39;;;4.61;;
15502;SDS011;7853;52.186;5.948;2022-09-09T04:34:48;6.06;;;4.59;;
15502;SDS011;7853;52.186;5.948;2022-09-09T04:35:49;9.27;;;5.05;;
15502;SDS011;7853;52.186;5.948;2022-09-09T04:36:49;7.77;;;4.77;;
15502;SDS011;7853;52.186;5.948;2022-09-09T04:37:49;6.32;;;4.73;;
15502;SDS011;7853;52.186;5.948;2022-09-09T04:38:49;7.20;;;5.12;;
15502;SDS011;7853;52.186;5.948;2022-09-09T04:39:49;7.60;;;4.71;;
15502;SDS011;7853;52.186;5.948;2022-09-09T04:40:50;6.77;;;5.04;;
15502;SDS011;7853;52.186;5.948;2022-09-09T04:41:49;8.20;;;4.85;;
15502;SDS011;7853;52.186;5.948;2022-09-09T04:42:49;8.11;;;4.88;;
15502;SDS011;7853;52.186;5.948;2022-09-09T04:43:49;7.50;;;4.60;;
15502;SDS011;7853;52.186;5.948;2022-09-09T04:44:49;9.35;;;5.03;;
15502;SDS011;7853;52.186;5.948;2022-09-09T04:45:49;6.91;;;4.80;;
15502;SDS011;7853;52.186;5.948;2022-09-09T04:46:49;7.89;;;4.83;;
15502;SDS011;7853;52.186;5.948;2022-09-09T04:47:49;7.11;;;4.75;;
15502;SDS011;7853;52.186;5.948;2022-09-09T04:48:49;7.23;;;4.72;;
15502;SDS011;7853;52.186;5.948;2022-09-09T04:49:49;6.53;;;5.01;;
15502;SDS011;7853;52.186;5.948;2022-09-09T04:50:57;7.15;;;5.10;;
15502;SDS011;7853;52.186;5.948;2022-09-09T04:51:49;8.89;;;5.38;;
15502;SDS011;7853;52.186;5.948;2022-09-09T04:52:49;8.24;;;5.03;;
15502;SDS011;7853;52.186;5.948;2022-09-09T04:53:49;8.20;;;4.92;;
15502;SDS011;7853;52.186;5.948;2022-09-09T04:54:50;6.36;;;4.85;;
15502;SDS011;7853;52.186;5.948;2022-09-09T04:55:50;7.66;;;4.91;;
15502;SDS011;7853;52.186;5.948;2022-09-09T04:56:50;8.63;;;5.24;;
15502;SDS011;7853;52.186;5.948;2022-09-09T04:57:50;6.88;;;4.69;;
15502;SDS011;7853;52.186;5.948;2022-09-09T04:58:50;7.59;;;4.41;;
15502;SDS011;7853;52.186;5.948;2022-09-09T04:59:50;6.98;;;4.80;;
15502;SDS011;7853;52.186;5.948;2022-09-09T05:00:50;8.53;;;5.02;;
15502;SDS011;7853;52.186;5.948;2022-09-09T05:01:50;6.33;;;4.92;;
15502;SDS011;7853;52.186;5.948;2022-09-09T05:02:50;6.36;;;4.68;;
15502;SDS011;7853;52.186;5.948;2022-09-09T05:03:50;8.69;;;5.07;;
15502;SDS011;7853;52.186;5.948;2022-09-09T05:04:50;6.73;;;4.50;;
15502;SDS011;7853;52.186;5.948;2022-09-09T05:05:50;7.19;;;4.83;;
15502;SDS011;7853;52.186;5.948;2022-09-09T05:06:50;7.47;;;5.19;;
15502;SDS011;7853;52.186;5.948;2022-09-09T05:07:50;7.37;;;4.86;;
15502;SDS011;7853;52.186;5.948;2022-09-09T05:08:51;7.98;;;4.62;;
15502;SDS011;7853;52.186;5.948;2022-09-09T05:09:51;8.20;;;4.60;;
15502;SDS011;7853;52.186;5.948;2022-09-09T05:10:51;9.60;;;4.80;;
15502;SDS011;7853;52.186;5.948;2022-09-09T05:11:51;8.51;;;5.17;;
15502;SDS011;7853;52.186;5.948;2022-09-09T05:12:52;7.01;;;4.84;;
15502;SDS011;7853;52.186;5.948;2022-09-09T05:13:51;6.12;;;4.65;;
15502;SDS011;7853;52.186;5.948;2022-09-09T05:14:51;7.21;;;4.89;;
15502;SDS011;7853;52.186;5.948;2022-09-09T05:15:51;7.87;;;4.94;;
15502;SDS011;7853;52.186;5.948;2022-09-09T05:16:51;7.51;;;4.69;;
15502;SDS011;7853;52.186;5.948;2022-09-09T05:17:51;8.54;;;4.75;;
15502;SDS011;7853;52.186;5.948;2022-09-09T05:18:51;7.25;;;4.77;;
15502;SDS011;7853;52.186;5.948;2022-09-09T05:19:51;8.69;;;4.82;;
15502;SDS011;7853;52.186;5.948;2022-09-09T05:20:51;7.40;;;4.64;;
15502;SDS011;7853;52.186;5.948;2022-09-09T05:21:51;7.68;;;5.05;;
15502;SDS011;7853;52.186;5.948;2022-09-09T05:22:52;6.43;;;4.37;;
15502;SDS011;7853;52.186;5.948;2022-09-09T05:23:51;6.56;;;4.61;;
15502;SDS011;7853;52.186;5.948;2022-09-09T05:24:51;7.60;;;4.85;;
15502;SDS011;7853;52.186;5.948;2022-09-09T05:25:55;7.53;;;4.53;;
15502;SDS011;7853;52.186;5.948;2022-09-09T05:26:52;7.19;;;4.64;;
15502;SDS011;7853;52.186;5.948;2022-09-09T05:27:52;7.06;;;4.84;;
15502;SDS011;7853;52.186;5.948;2022-09-09T05:28:52;7.56;;;4.80;;
15502;SDS011;7853;52.186;5.948;2022-09-09T05:29:52;7.73;;;4.66;;
15502;SDS011;7853;52.186;5.948;2022-09-09T05:30:55;8.51;;;4.31;;
15502;SDS011;7853;52.186;5.948;2022-09-09T05:31:52;5.79;;;4.63;;
15502;SDS011;7853;52.186;5.948;2022-09-09T05:32:52;7.14;;;4.53;;
15502;SDS011;7853;52.186;5.948;2022-09-09T05:33:52;7.36;;;5.15;;
15502;SDS011;7853;52.186;5.948;2022-09-09T05:34:52;7.63;;;4.54;;
15502;SDS011;7853;52.186;5.948;2022-09-09T05:36:00;7.01;;;4.98;;
15502;SDS011;7853;52.186;5.948;2022-09-09T05:36:52;6.59;;;4.63;;
15502;SDS011;7853;52.186;5.948;2022-09-09T05:37:52;6.97;;;4.65;;
15502;SDS011;7853;52.186;5.948;2022-09-09T05:38:52;6.96;;;4.57;;
15502;SDS011;7853;52.186;5.948;2022-09-09T05:39:52;8.02;;;4.71;;
15502;SDS011;7853;52.186;5.948;2022-09-09T05:40:52;8.83;;;5.00;;
15502;SDS011;7853;52.186;5.948;2022-09-09T05:41:52;6.68;;;4.76;;
15502;SDS011;7853;52.186;5.948;2022-09-09T05:42:52;8.25;;;4.66;;
15502;SDS011;7853;52.186;5.948;2022-09-09T05:43:52;7.72;;;4.53;;
15502;SDS011;7853;52.186;5.948;2022-09-09T05:44:52;7.93;;;4.41;;
15502;SDS011;7853;52.186;5.948;2022-09-09T05:46:00;6.49;;;4.57;;
15502;SDS011;7853;52.186;5.948;2022-09-09T05:46:52;7.67;;;4.71;;
15502;SDS011;7853;52.186;5.948;2022-09-09T05:47:52;6.39;;;4.46;;
15502;SDS011;7853;52.186;5.948;2022-09-09T05:48:53;6.63;;;4.43;;
15502;SDS011;7853;52.186;5.948;2022-09-09T05:49:53;8.53;;;4.56;;
15502;SDS011;7853;52.186;5.948;2022-09-09T05:50:53;6.72;;;4.68;;
15502;SDS011;7853;52.186;5.948;2022-09-09T05:51:53;9.53;;;4.53;;
15502;SDS011;7853;52.186;5.948;2022-09-09T05:52:54;7.07;;;4.32;;
15502;SDS011;7853;52.186;5.948;2022-09-09T05:53:53;7.07;;;4.47;;
15502;SDS011;7853;52.186;5.948;2022-09-09T05:54:53;8.36;;;4.61;;
15502;SDS011;7853;52.186;5.948;2022-09-09T05:56:01;6.70;;;4.53;;
15502;SDS011;7853;52.186;5.948;2022-09-09T05:56:53;7.75;;;4.74;;
15502;SDS011;7853;52.186;5.948;2022-09-09T05:57:53;7.80;;;4.37;;
15502;SDS011;7853;52.186;5.948;2022-09-09T05:58:53;8.72;;;4.30;;
15502;SDS011;7853;52.186;5.948;2022-09-09T05:59:53;7.98;;;4.84;;
15502;SDS011;7853;52.186;5.948;2022-09-09T06:00:59;6.57;;;4.53;;
15502;SDS011;7853;52.186;5.948;2022-09-09T06:01:53;7.48;;;4.39;;
15502;SDS011;7853;52.186;5.948;2022-09-09T06:02:53;12.21;;;5.45;;
15502;SDS011;7853;52.186;5.948;2022-09-09T06:03:53;8.60;;;4.63;;
15502;SDS011;7853;52.186;5.948;2022-09-09T06:04:53;8.99;;;4.75;;
15502;SDS011;7853;52.186;5.948;2022-09-09T06:05:56;7.88;;;4.70;;
15502;SDS011;7853;52.186;5.948;2022-09-09T06:06:53;6.87;;;4.13;;
15502;SDS011;7853;52.186;5.948;2022-09-09T06:07:54;6.92;;;4.53;;
15502;SDS011;7853;52.186;5.948;2022-09-09T06:08:54;8.26;;;4.43;;
15502;SDS011;7853;52.186;5.948;2022-09-09T06:09:54;6.74;;;4.39;;